Terminal Aerodrome Forecast
Issued by NWS Twin Cities, MN

Home | Current Version | Previous Version | Text Only | Print | Product List | Glossary On
Versions: 1 2 3 4 5 6 7 8 9 10 11 12 13 14 15 16
000
FTUS43 KMPX 172300
TAFEAU
TAF
KEAU 172333Z 1800/1824 05003KT P6SM FEW060
     FM180900 07004KT 3SM BR FEW008
      TEMPO 1809/1812 1 1/2SM BR SCT006
     FM181300 11006KT P6SM SCT010
     FM181500 13006KT P6SM SCT020
     FM181700 14006KT P6SM SCT035=

USA.gov is the U.S. government's official web portal to all federal, state and local government web resources and services.